CheckWX is a tool to help pilots better visualize weather data.  It is not intended as a substitute for an official pre-flight weather briefing.

13:02:34 UTC

CWWU METAR
Ingenika Point Airport
Long Pond, Canada
Current

1 hour ago

CWWU 171200Z 17003KT 120V210 15SM OVC019 11/09 A2992 RMK SC8 SLP134
Observed
Jun-17 @ 12:00 UTC
Wind
  • 170° at 3 KTS
Visibility
15 SM
Flight Rules
MVFR
Cloud Levels
  • Overcast at 1,900' AGL
Temperature
11°C / 52°F
Dewpoint
C / 48°F
Humidity
88%
Altimeter
29.92" Hg
Pressure
1013.22 hPa
Previous

1 hour ago

CWWU 171137Z VRB02KT 15SM -DZ BKN019 OVC030 11/09 A2993 RMK SC7SC1 SLP138
Observed
Jun-17 @ 11:37 UTC
Wind
  • Variable at 2 KTS
Visibility
15 SM
Flight Rules
MVFR
Conditions
Light Drizzle
Cloud Levels
  • Broken at 1,900' AGL
  • Overcast at 3,000' AGL
Temperature
11°C / 52°F
Dewpoint
C / 48°F
Humidity
88%
Altimeter
29.93" Hg
Pressure
1013.52 hPa
Previous

2 hours ago

CWWU 171110Z 18004KT 160V220 15SM -SHRA BKN020 OVC070 10/09 A2993 RMK SC7AC1 SLP139
Observed
Jun-17 @ 11:10 UTC
Wind
  • 180° at 4 KTS
Visibility
15 SM
Flight Rules
MVFR
Conditions
Light Rain
Cloud Levels
  • Broken at 2,000' AGL
  • Overcast at 7,000' AGL
Temperature
10°C / 50°F
Dewpoint
C / 48°F
Humidity
94%
Altimeter
29.93" Hg
Pressure
1013.52 hPa